Time;durP1;ratioP1;P1;durP2;ratioP2;P2;SDS_P1;SDS_P2;PMS_P1;PMS_P2;Temp;Humidity;BMP_temperature;BMP_pressure;BME280_temperature;BME280_humidity;BME280_pressure;Samples;Min_cycle;Max_cycle;Signal;HPM_P1;HPM_P2
2023/07/16 00:02:02;;;;;;;2.97;1.25;;;22.70;98.00;;;;;;5050990;28;20347;-71
2023/07/16 00:04:27;;;;;;;5.63;2.22;;;22.70;98.00;;;;;;5050720;28;20025;-70
2023/07/16 00:06:53;;;;;;;3.60;1.15;;;22.70;98.00;;;;;;5050613;28;20061;-70
2023/07/16 00:09:18;;;;;;;3.58;1.40;;;22.70;98.00;;;;;;5050504;28;20476;-71
2023/07/16 00:11:44;;;;;;;2.03;1.13;;;22.70;97.90;;;;;;5050447;28;20021;-70
2023/07/16 00:14:12;;;;;;;3.20;1.13;;;22.60;98.00;;;;;;5051063;28;20021;-71
2023/07/16 00:16:37;;;;;;;2.78;1.40;;;22.50;98.10;;;;;;5050361;28;20112;-71
2023/07/16 00:19:03;;;;;;;2.38;1.27;;;22.60;98.20;;;;;;5050340;28;20133;-71
2023/07/16 00:21:29;;;;;;;3.45;1.27;;;22.60;98.20;;;;;;5050420;28;20044;-70
2023/07/16 00:23:55;;;;;;;4.03;1.40;;;22.60;98.20;;;;;;5049033;28;20037;-70
2023/07/16 00:26:21;;;;;;;3.75;1.17;;;22.60;98.00;;;;;;5050723;28;20027;-70
2023/07/16 00:28:47;;;;;;;2.75;1.45;;;22.60;98.10;;;;;;5050183;28;20354;-70
2023/07/16 00:31:13;;;;;;;2.03;1.23;;;22.60;98.10;;;;;;5049167;28;20464;-71
2023/07/16 00:33:38;;;;;;;4.03;1.33;;;22.70;98.10;;;;;;5048862;28;20053;-70
2023/07/16 00:36:04;;;;;;;2.85;1.30;;;22.60;98.00;;;;;;5050062;28;20036;-71
2023/07/16 00:38:30;;;;;;;4.70;1.85;;;22.60;98.00;;;;;;5050517;28;20025;-70
2023/07/16 00:40:56;;;;;;;3.72;1.40;;;22.60;98.00;;;;;;5050033;28;20029;-71
2023/07/16 00:43:22;;;;;;;4.78;1.35;;;22.60;98.00;;;;;;5048979;28;20060;-71
2023/07/16 00:45:49;;;;;;;3.50;1.55;;;22.60;98.00;;;;;;5050338;28;20055;-70
2023/07/16 00:48:14;;;;;;;3.80;1.63;;;22.60;98.20;;;;;;5050133;28;20089;-70
2023/07/16 00:50:41;;;;;;;4.32;1.40;;;22.50;98.40;;;;;;5050277;28;20473;-70
2023/07/16 00:53:08;;;;;;;2.33;1.25;;;22.40;98.60;;;;;;5050431;28;20021;-71
2023/07/16 00:55:35;;;;;;;2.38;1.30;;;22.30;98.70;;;;;;5050106;28;20063;-71
2023/07/16 00:58:05;;;;;;;3.25;1.33;;;22.40;98.70;;;;;;5049012;28;20029;-70
2023/07/16 01:00:40;;;;;;;4.93;1.13;;;22.40;98.50;;;;;;5050418;28;20028;-70
2023/07/16 01:03:09;;;;;;;3.60;1.48;;;22.40;98.40;;;;;;5050221;28;20032;-70
2023/07/16 01:05:57;;;;;;;2.50;1.25;;;22.40;98.50;;;;;;5050454;28;20017;-70
2023/07/16 01:08:42;;;;;;;4.03;1.20;;;22.30;98.60;;;;;;5054364;28;20021;-71
2023/07/16 01:11:09;;;;;;;3.72;1.20;;;22.30;98.50;;;;;;5054570;28;20048;-70
2023/07/16 01:13:36;;;;;;;2.37;1.23;;;22.20;98.80;;;;;;5054314;28;20025;-71
2023/07/16 01:16:06;;;;;;;1.67;1.40;;;22.20;98.60;;;;;;5054195;28;20029;-71
2023/07/16 01:18:31;;;;;;;2.05;1.30;;;22.20;98.60;;;;;;5053950;28;20060;-70
2023/07/16 01:20:57;;;;;;;4.15;1.52;;;22.20;98.60;;;;;;5053986;28;20127;-71
2023/07/16 01:23:28;;;;;;;3.47;1.40;;;22.30;98.70;;;;;;5054085;28;20419;-71
2023/07/16 01:26:12;;;;;;;3.78;1.73;;;22.30;98.50;;;;;;5052662;28;20030;-71
2023/07/16 01:28:56;;;;;;;3.28;1.27;;;22.30;98.40;;;;;;5053792;28;20032;-70
2023/07/16 01:31:23;;;;;;;3.08;1.23;;;22.30;98.50;;;;;;5053811;28;20152;-71
2023/07/16 01:33:50;;;;;;;2.55;1.30;;;22.30;98.60;;;;;;5053329;28;20152;-70
2023/07/16 01:36:17;;;;;;;2.55;1.52;;;22.20;98.60;;;;;;5064608;28;20304;-71
2023/07/16 01:38:43;;;;;;;2.78;1.40;;;22.20;98.60;;;;;;5073387;28;20025;-71
2023/07/16 01:41:09;;;;;;;3.10;1.23;;;22.30;98.60;;;;;;5073737;28;20482;-70
2023/07/16 01:43:34;;;;;;;3.53;1.92;;;22.20;98.60;;;;;;5072367;28;20032;-71
2023/07/16 01:46:00;;;;;;;2.67;1.42;;;22.30;98.60;;;;;;5073606;28;20119;-70
2023/07/16 01:48:32;;;;;;;4.55;3.03;;;22.30;98.70;;;;;;5073361;28;20062;-71
2023/07/16 01:50:57;;;;;;;3.65;1.65;;;22.20;98.70;;;;;;5073492;28;20047;-70
2023/07/16 01:53:23;;;;;;;1.83;1.30;;;22.30;98.70;;;;;;5073423;28;20033;-71
2023/07/16 01:55:49;;;;;;;2.72;1.98;;;22.30;98.70;;;;;;5073059;28;20120;-71
2023/07/16 01:58:14;;;;;;;2.35;1.48;;;22.30;98.50;;;;;;5072954;28;20493;-70
2023/07/16 02:00:40;;;;;;;2.33;1.30;;;22.40;98.50;;;;;;5072963;28;20040;-71
2023/07/16 02:03:06;;;;;;;6.03;1.27;;;22.40;98.60;;;;;;5073089;28;20028;-71
2023/07/16 02:05:31;;;;;;;4.13;2.28;;;22.30;98.50;;;;;;5073473;28;20024;-71
2023/07/16 02:07:57;;;;;;;2.05;1.17;;;22.30;98.60;;;;;;5072943;28;20450;-71
2023/07/16 02:10:23;;;;;;;5.38;1.30;;;22.30;98.80;;;;;;5072853;28;20029;-71
2023/07/16 02:12:49;;;;;;;2.28;1.33;;;22.30;98.70;;;;;;5072816;28;20041;-71
2023/07/16 02:15:15;;;;;;;3.55;1.30;;;22.30;98.60;;;;;;5072625;28;20039;-71
2023/07/16 02:17:41;;;;;;;3.45;1.50;;;22.30;98.60;;;;;;5071936;28;20035;-70
2023/07/16 02:20:07;;;;;;;1.95;1.40;;;22.30;98.60;;;;;;5073133;28;20024;-70
2023/07/16 02:22:35;;;;;;;3.70;1.27;;;22.30;98.70;;;;;;5072632;28;20143;-70
2023/07/16 02:25:01;;;;;;;3.90;1.00;;;22.20;98.80;;;;;;5072588;28;20120;-70
2023/07/16 02:27:27;;;;;;;4.47;1.25;;;22.10;98.80;;;;;;5072681;28;20051;-72
2023/07/16 02:29:53;;;;;;;4.10;1.58;;;22.10;99.00;;;;;;5071570;28;20450;-70
2023/07/16 02:32:18;;;;;;;3.08;1.67;;;22.10;99.00;;;;;;5073312;28;20506;-70
2023/07/16 02:34:44;;;;;;;3.17;1.20;;;22.10;99.00;;;;;;5072281;28;20148;-70
2023/07/16 02:37:10;;;;;;;3.20;1.60;;;22.10;99.00;;;;;;5072467;28;20103;-72
2023/07/16 02:39:35;;;;;;;2.15;1.27;;;22.10;99.00;;;;;;5072471;28;20025;-71
2023/07/16 02:42:01;;;;;;;3.10;1.45;;;22.10;99.00;;;;;;5072311;28;20029;-70
2023/07/16 02:44:27;;;;;;;5.65;1.50;;;22.10;99.00;;;;;;5072964;28;20032;-71
2023/07/16 02:46:52;;;;;;;2.33;1.40;;;22.00;99.20;;;;;;5072202;28;20032;-70
2023/07/16 02:49:18;;;;;;;6.28;1.50;;;22.00;99.30;;;;;;5072274;28;20029;-70
2023/07/16 02:51:44;;;;;;;4.03;1.45;;;21.90;99.20;;;;;;5072181;28;20032;-71
2023/07/16 02:54:10;;;;;;;1.45;1.08;;;22.00;99.20;;;;;;5071094;28;20411;-71
2023/07/16 02:56:35;;;;;;;3.45;1.42;;;22.00;99.10;;;;;;5072195;28;20411;-72
2023/07/16 02:59:01;;;;;;;4.25;1.35;;;22.00;99.30;;;;;;5072443;28;20454;-71
2023/07/16 03:01:26;;;;;;;4.90;1.60;;;22.00;99.20;;;;;;5070796;28;20028;-71
2023/07/16 03:03:52;;;;;;;2.30;1.15;;;21.90;99.30;;;;;;5070767;28;20032;-71
2023/07/16 03:06:17;;;;;;;2.65;1.70;;;21.90;99.30;;;;;;5071870;28;20120;-71
2023/07/16 03:08:45;;;;;;;2.38;1.50;;;21.90;99.50;;;;;;5071578;28;20174;-70
2023/07/16 03:11:11;;;;;;;3.25;1.40;;;21.90;99.20;;;;;;5072430;28;20050;-70
2023/07/16 03:13:37;;;;;;;3.25;1.40;;;21.80;99.20;;;;;;5070528;28;20528;-71
2023/07/16 03:16:03;;;;;;;2.28;1.40;;;21.80;98.90;;;;;;5071761;28;20048;-71
2023/07/16 03:18:29;;;;;;;2.88;1.60;;;21.80;99.10;;;;;;5071492;28;20028;-69
2023/07/16 03:20:56;;;;;;;2.05;1.20;;;21.70;99.10;;;;;;5070760;28;20589;-70
2023/07/16 03:23:22;;;;;;;4.78;1.63;;;21.70;99.10;;;;;;5071834;28;20025;-71
2023/07/16 03:25:47;;;;;;;3.33;1.42;;;21.70;99.20;;;;;;5072083;28;20025;-71
2023/07/16 03:28:13;;;;;;;5.40;1.80;;;21.60;99.20;;;;;;5071151;28;20107;-70
2023/07/16 03:30:39;;;;;;;3.08;1.50;;;21.60;99.10;;;;;;5070013;28;20028;-70
2023/07/16 03:33:04;;;;;;;5.00;1.65;;;21.60;99.00;;;;;;5070028;28;20039;-71
2023/07/16 03:35:30;;;;;;;3.83;1.25;;;21.40;99.40;;;;;;5071373;28;20486;-70
2023/07/16 03:37:56;;;;;;;3.13;1.65;;;21.40;99.50;;;;;;5071164;28;20029;-71
2023/07/16 03:40:26;;;;;;;3.08;1.70;;;21.40;99.40;;;;;;5071142;28;20082;-71
2023/07/16 03:42:52;;;;;;;2.35;1.52;;;21.40;99.30;;;;;;5070984;28;20047;-70
2023/07/16 03:45:18;;;;;;;2.42;1.42;;;21.40;99.20;;;;;;5069787;28;20562;-70
2023/07/16 03:47:44;;;;;;;2.58;1.55;;;21.40;99.10;;;;;;5070891;28;20020;-71
2023/07/16 03:50:10;;;;;;;5.80;2.05;;;21.40;99.20;;;;;;5071275;28;20039;-70
2023/07/16 03:52:36;;;;;;;2.30;1.52;;;21.40;99.20;;;;;;5070921;28;20037;-71
2023/07/16 03:55:02;;;;;;;4.32;1.83;;;21.40;99.00;;;;;;5070886;28;20094;-71
2023/07/16 03:57:29;;;;;;;4.00;1.65;;;21.40;99.10;;;;;;5071161;28;20368;-69
2023/07/16 03:59:54;;;;;;;4.88;1.42;;;21.30;99.20;;;;;;5070757;28;20222;-70
2023/07/16 04:02:20;;;;;;;3.83;1.80;;;21.20;99.20;;;;;;5071065;28;20111;-71
2023/07/16 04:04:46;;;;;;;2.35;1.55;;;21.20;99.30;;;;;;5070981;28;20032;-71
2023/07/16 04:07:12;;;;;;;4.20;1.67;;;21.10;99.40;;;;;;5070549;28;20025;-69
2023/07/16 04:09:38;;;;;;;3.88;1.80;;;21.10;99.40;;;;;;5070376;28;20029;-69
2023/07/16 04:12:05;;;;;;;4.30;1.85;;;21.20;99.30;;;;;;5070738;28;20369;-70
2023/07/16 04:14:31;;;;;;;9.00;2.47;;;21.10;99.40;;;;;;5071377;28;20059;-70
2023/07/16 04:16:56;;;;;;;2.75;1.30;;;21.10;99.40;;;;;;5070545;28;20052;-71
2023/07/16 04:19:22;;;;;;;3.38;1.88;;;21.10;99.50;;;;;;5070406;28;20021;-70
2023/07/16 04:21:47;;;;;;;2.70;1.63;;;21.10;99.50;;;;;;5070359;28;20024;-70
2023/07/16 04:24:13;;;;;;;2.38;1.65;;;21.10;99.40;;;;;;5069114;28;20111;-70
2023/07/16 04:26:39;;;;;;;3.13;1.58;;;21.10;99.40;;;;;;5070147;28;20032;-69
2023/07/16 04:29:04;;;;;;;5.45;1.77;;;21.10;99.50;;;;;;5070709;28;20020;-70
2023/07/16 04:31:30;;;;;;;4.97;1.80;;;21.10;99.40;;;;;;5070399;28;20107;-69
2023/07/16 04:33:55;;;;;;;2.90;1.38;;;21.00;99.50;;;;;;5070095;28;20470;-70
2023/07/16 04:36:21;;;;;;;4.28;1.70;;;21.00;99.60;;;;;;5070104;28;20033;-69
2023/07/16 04:38:47;;;;;;;5.43;2.20;;;21.00;99.60;;;;;;5070340;28;20095;-70
2023/07/16 04:41:12;;;;;;;3.72;1.80;;;21.00;99.60;;;;;;5069920;28;20100;-69
2023/07/16 04:43:39;;;;;;;3.40;1.55;;;21.10;99.60;;;;;;5069992;28;20387;-69
2023/07/16 04:46:05;;;;;;;6.38;2.17;;;21.00;99.60;;;;;;5069992;28;20530;-69
2023/07/16 04:48:30;;;;;;;2.03;1.48;;;21.00;99.60;;;;;;5070032;28;20040;-69
2023/07/16 04:50:56;;;;;;;7.15;1.67;;;21.00;99.70;;;;;;5070017;28;20103;-70
2023/07/16 04:53:22;;;;;;;6.15;1.73;;;21.10;99.70;;;;;;5070349;28;20017;-70
2023/07/16 04:55:49;;;;;;;4.20;1.90;;;21.10;99.60;;;;;;5069945;28;20093;-69
2023/07/16 04:58:15;;;;;;;3.67;1.98;;;21.00;99.60;;;;;;5070025;28;20082;-70
2023/07/16 05:00:41;;;;;;;2.38;1.40;;;21.10;99.60;;;;;;5069015;28;20025;-71
2023/07/16 05:03:07;;;;;;;6.47;2.05;;;21.10;99.90;;;;;;5069798;28;20025;-71
2023/07/16 05:05:32;;;;;;;3.90;1.63;;;21.10;99.60;;;;;;5070279;28;20077;-70
2023/07/16 05:07:58;;;;;;;2.90;1.40;;;21.10;99.60;;;;;;5069926;28;20059;-70
2023/07/16 05:10:24;;;;;;;3.22;1.67;;;21.00;99.70;;;;;;5069860;28;20021;-70
2023/07/16 05:12:50;;;;;;;5.45;1.83;;;21.00;99.90;;;;;;5069910;28;20032;-69
2023/07/16 05:15:16;;;;;;;6.43;1.83;;;21.00;99.70;;;;;;5069830;28;20033;-70
2023/07/16 05:17:41;;;;;;;2.63;1.63;;;21.00;99.80;;;;;;5070052;28;20028;-70
2023/07/16 05:20:09;;;;;;;4.78;1.80;;;21.00;99.90;;;;;;5070567;28;20032;-71
2023/07/16 05:22:35;;;;;;;5.43;1.75;;;21.10;99.80;;;;;;5069939;28;20059;-69
2023/07/16 05:25:01;;;;;;;3.58;1.85;;;21.10;99.80;;;;;;5069749;28;20478;-69
2023/07/16 05:27:27;;;;;;;5.43;1.40;;;21.10;99.70;;;;;;5069819;28;20055;-71
2023/07/16 05:29:53;;;;;;;1.83;1.40;;;21.10;99.70;;;;;;5069598;28;20040;-70
2023/07/16 05:32:19;;;;;;;3.70;1.30;;;21.10;99.70;;;;;;5069213;28;20028;-70
2023/07/16 05:34:44;;;;;;;4.57;1.35;;;21.10;99.60;;;;;;5068544;28;20048;-69
2023/07/16 05:37:10;;;;;;;4.43;1.52;;;21.10;99.50;;;;;;5069845;28;20040;-71
2023/07/16 05:39:35;;;;;;;2.78;1.38;;;21.20;99.30;;;;;;5068505;28;20036;-71
2023/07/16 05:42:04;;;;;;;2.17;1.42;;;21.30;99.20;;;;;;5069787;28;20028;-69
2023/07/16 05:44:30;;;;;;;5.13;1.48;;;21.30;99.10;;;;;;5070084;28;20024;-69
2023/07/16 05:46:55;;;;;;;8.43;1.77;;;21.30;98.90;;;;;;5068446;28;20040;-71
2023/07/16 05:49:21;;;;;;;4.32;1.27;;;21.30;98.80;;;;;;5069554;28;20090;-69
2023/07/16 05:51:47;;;;;;;5.70;1.35;;;21.20;98.60;;;;;;5070070;28;20036;-69
2023/07/16 05:54:12;;;;;;;4.72;2.25;;;21.20;98.50;;;;;;5072960;28;20040;-70
2023/07/16 05:56:38;;;;;;;4.10;2.00;;;21.30;98.50;;;;;;5073227;28;20642;-70
2023/07/16 05:59:04;;;;;;;6.32;1.88;;;21.30;98.40;;;;;;5073530;28;20060;-69
2023/07/16 06:01:29;;;;;;;4.28;1.30;;;21.40;98.30;;;;;;5073120;28;20040;-70
2023/07/16 06:03:55;;;;;;;5.40;1.40;;;21.40;98.10;;;;;;5073221;28;20416;-70
2023/07/16 06:06:20;;;;;;;2.53;1.35;;;21.40;98.10;;;;;;5073122;28;20040;-69
2023/07/16 06:08:46;;;;;;;5.22;2.00;;;21.30;97.90;;;;;;5073143;28;20521;-69
2023/07/16 06:11:12;;;;;;;8.25;2.40;;;21.40;98.00;;;;;;5072415;28;20035;-69
2023/07/16 06:13:38;;;;;;;5.65;1.80;;;21.40;98.00;;;;;;5071826;28;20543;-69
2023/07/16 06:16:04;;;;;;;4.43;1.83;;;21.50;97.80;;;;;;5072864;28;20029;-68
2023/07/16 06:18:30;;;;;;;5.28;1.65;;;21.50;97.60;;;;;;5071616;28;20048;-70
2023/07/16 06:20:55;;;;;;;5.97;1.92;;;21.60;97.50;;;;;;5071933;28;20024;-70
2023/07/16 06:23:21;;;;;;;3.90;1.80;;;21.60;97.30;;;;;;5073065;28;20039;-70
2023/07/16 06:25:48;;;;;;;3.95;1.30;;;21.60;97.40;;;;;;5072599;28;20048;-69
2023/07/16 06:28:14;;;;;;;4.80;2.13;;;21.70;97.10;;;;;;5072625;28;20039;-69
2023/07/16 06:30:40;;;;;;;2.22;1.40;;;21.70;97.10;;;;;;5071571;28;20404;-69
2023/07/16 06:33:06;;;;;;;8.05;1.77;;;21.80;96.80;;;;;;5072435;28;20043;-69
2023/07/16 06:35:32;;;;;;;3.90;1.45;;;21.80;96.40;;;;;;5072614;28;20040;-68
2023/07/16 06:37:58;;;;;;;5.32;1.90;;;21.70;96.20;;;;;;5071473;28;20441;-69
2023/07/16 06:40:24;;;;;;;2.85;1.25;;;21.70;96.00;;;;;;5072256;28;20048;-72
2023/07/16 06:42:50;;;;;;;7.38;1.70;;;21.70;96.10;;;;;;5072404;28;20504;-70
2023/07/16 06:45:17;;;;;;;8.23;1.65;;;21.70;96.00;;;;;;5072363;28;20029;-68
2023/07/16 06:47:43;;;;;;;7.80;1.73;;;21.70;95.80;;;;;;5072525;28;20024;-70
2023/07/16 06:50:09;;;;;;;4.25;1.70;;;21.70;95.80;;;;;;5072927;28;20031;-70
2023/07/16 06:52:34;;;;;;;6.63;1.98;;;21.80;95.60;;;;;;5070956;28;20032;-70
2023/07/16 06:55:00;;;;;;;6.60;1.85;;;21.90;96.00;;;;;;5071881;28;20094;-69
2023/07/16 06:57:26;;;;;;;5.85;1.75;;;21.90;95.60;;;;;;5072022;28;20032;-70
2023/07/16 06:59:51;;;;;;;8.50;2.10;;;22.00;95.40;;;;;;5072139;28;20032;-70
2023/07/16 07:02:18;;;;;;;3.45;1.83;;;22.10;95.10;;;;;;5071540;28;20461;-69
2023/07/16 07:04:44;;;;;;;8.18;1.85;;;22.10;94.80;;;;;;5071169;28;20545;-70
2023/07/16 07:07:10;;;;;;;4.93;1.70;;;22.00;95.00;;;;;;5072101;28;20036;-69
2023/07/16 07:09:35;;;;;;;5.53;1.90;;;22.00;94.70;;;;;;5071601;28;20051;-69
2023/07/16 07:12:01;;;;;;;6.25;2.83;;;22.10;94.70;;;;;;5070595;28;20045;-70
2023/07/16 07:14:27;;;;;;;4.30;1.92;;;22.10;94.80;;;;;;5072139;28;20107;-70
2023/07/16 07:16:53;;;;;;;6.97;1.80;;;22.20;94.80;;;;;;5071939;28;20033;-70
2023/07/16 07:19:18;;;;;;;7.93;1.52;;;22.30;94.30;;;;;;5071639;28;20120;-70
2023/07/16 07:21:44;;;;;;;8.05;1.90;;;22.40;94.10;;;;;;5070493;28;20094;-69
2023/07/16 07:24:10;;;;;;;4.10;1.50;;;22.40;93.40;;;;;;5071544;28;20029;-69
2023/07/16 07:26:35;;;;;;;7.30;1.83;;;22.50;92.40;;;;;;5071357;28;20082;-70
2023/07/16 07:29:01;;;;;;;6.97;2.30;;;22.40;92.00;;;;;;5071846;28;20020;-70
2023/07/16 07:31:26;;;;;;;6.22;2.13;;;22.40;91.50;;;;;;5071315;28;20489;-71
2023/07/16 07:33:53;;;;;;;9.75;2.30;;;22.40;91.20;;;;;;5071057;28;20064;-70
2023/07/16 07:36:19;;;;;;;5.47;2.30;;;22.40;90.90;;;;;;5071691;28;20291;-71
2023/07/16 07:38:45;;;;;;;8.88;2.30;;;22.40;90.40;;;;;;5057675;28;20041;-69
2023/07/16 07:41:10;;;;;;;7.80;2.72;;;22.40;89.90;;;;;;5085156;28;20021;-71
2023/07/16 07:43:36;;;;;;;3.92;1.83;;;22.50;88.60;;;;;;5051131;28;20033;-71
2023/07/16 07:46:02;;;;;;;13.73;2.47;;;22.60;90.00;;;;;;5052094;28;20033;-69
2023/07/16 07:48:28;;;;;;;4.93;1.85;;;22.70;88.50;;;;;;5052115;28;20468;-71
2023/07/16 07:50:53;;;;;;;9.82;3.88;;;22.70;86.50;;;;;;5051059;28;20055;-70
2023/07/16 07:53:19;;;;;;;5.75;2.50;;;22.90;87.10;;;;;;5052067;28;20029;-70
2023/07/16 07:55:45;;;;;;;7.93;2.35;;;23.10;86.10;;;;;;5052084;28;20052;-69
2023/07/16 07:58:12;;;;;;;4.30;1.77;;;23.20;84.90;;;;;;5050800;28;20171;-70
2023/07/16 08:00:38;;;;;;;7.78;2.30;;;23.30;82.80;;;;;;5051944;28;20029;-70
2023/07/16 08:03:04;;;;;;;7.60;2.15;;;23.40;82.00;;;;;;5050662;28;20033;-70
2023/07/16 08:05:29;;;;;;;6.97;2.47;;;23.40;80.50;;;;;;5052209;28;20363;-69
2023/07/16 08:07:55;;;;;;;4.90;2.08;;;23.30;78.80;;;;;;5051202;28;20459;-69
2023/07/16 08:10:21;;;;;;;9.70;2.17;;;23.30;79.60;;;;;;5051686;28;20033;-70
2023/07/16 08:12:47;;;;;;;6.38;3.20;;;23.60;79.80;;;;;;5051774;28;20052;-69
2023/07/16 08:15:13;;;;;;;3.70;2.17;;;23.90;79.70;;;;;;5050479;28;20037;-70
2023/07/16 08:17:43;;;;;;;7.43;2.60;;;24.20;78.50;;;;;;5051238;28;20119;-69
2023/07/16 08:20:09;;;;;;;5.65;1.98;;;24.40;77.70;;;;;;5052144;28;20033;-71
2023/07/16 08:22:35;;;;;;;7.97;2.65;;;24.60;76.30;;;;;;5051044;28;20366;-70
2023/07/16 08:25:01;;;;;;;8.05;2.28;;;24.90;75.90;;;;;;5051297;28;20049;-69
2023/07/16 08:27:26;;;;;;;5.53;2.17;;;25.00;76.20;;;;;;5083744;28;20087;-70
2023/07/16 08:29:52;;;;;;;5.72;2.50;;;25.50;74.50;;;;;;5050449;28;20393;-70
2023/07/16 08:32:19;;;;;;;4.97;2.60;;;25.20;72.50;;;;;;5050607;28;20025;-69
2023/07/16 08:34:44;;;;;;;4.90;1.90;;;25.60;73.30;;;;;;5051069;28;20109;-72
2023/07/16 08:37:10;;;;;;;8.98;2.30;;;26.10;72.50;;;;;;5050979;28;20025;-70
2023/07/16 08:39:36;;;;;;;5.10;2.50;;;26.50;71.30;;;;;;5051117;28;20045;-72
2023/07/16 08:42:01;;;;;;;4.43;2.00;;;26.90;70.70;;;;;;5051118;28;20414;-71
2023/07/16 08:44:28;;;;;;;4.90;2.33;;;27.70;69.70;;;;;;5051537;28;20032;-72
2023/07/16 08:46:54;;;;;;;8.20;2.22;;;28.40;66.50;;;;;;5050058;28;20471;-71
2023/07/16 08:49:21;;;;;;;7.00;2.60;;;29.10;67.00;;;;;;5050282;28;20061;-71
2023/07/16 08:51:48;;;;;;;7.78;2.28;;;29.80;62.20;;;;;;5050867;28;20033;-71
2023/07/16 08:54:18;;;;;;;6.38;2.63;;;30.10;61.20;;;;;;5050835;28;20378;-72
2023/07/16 08:56:45;;;;;;;9.65;2.10;;;29.40;59.40;;;;;;5051318;28;20040;-71
2023/07/16 08:59:11;;;;;;;6.22;2.28;;;28.10;59.20;;;;;;5051474;28;20048;-73
2023/07/16 09:01:39;;;;;;;7.05;2.42;;;28.30;59.80;;;;;;5051047;28;20033;-72
2023/07/16 09:04:05;;;;;;;10.85;2.28;;;28.60;59.30;;;;;;5050933;28;20029;-72
2023/07/16 09:06:30;;;;;;;4.60;2.28;;;28.90;57.70;;;;;;5049874;28;20051;-71
2023/07/16 09:08:56;;;;;;;3.42;1.67;;;28.90;58.30;;;;;;5050932;28;20021;-72
2023/07/16 09:11:22;;;;;;;7.13;2.55;;;29.00;57.30;;;;;;5051494;28;20043;-71
2023/07/16 09:13:48;;;;;;;4.38;2.08;;;29.50;57.30;;;;;;5050842;28;20048;-71
2023/07/16 09:16:17;;;;;;;4.78;1.98;;;30.10;56.50;;;;;;5050894;28;20036;-71
2023/07/16 09:18:43;;;;;;;4.50;2.38;;;30.40;56.20;;;;;;5050798;28;20029;-71
2023/07/16 09:21:09;;;;;;;4.63;2.00;;;30.40;56.10;;;;;;5050885;28;20200;-71
2023/07/16 09:23:35;;;;;;;6.15;2.40;;;30.90;55.90;;;;;;5050603;28;20116;-70
2023/07/16 09:26:01;;;;;;;5.57;2.47;;;31.30;55.50;;;;;;5051115;28;20037;-70
2023/07/16 09:28:26;;;;;;;6.97;2.28;;;31.70;53.70;;;;;;5054002;28;20040;-71
2023/07/16 09:30:52;;;;;;;3.92;1.98;;;31.70;53.80;;;;;;5054682;28;20037;-70
2023/07/16 09:33:19;;;;;;;4.80;2.13;;;31.10;53.50;;;;;;5054741;28;20102;-70
2023/07/16 09:35:48;;;;;;;7.50;2.08;;;31.10;53.70;;;;;;5054474;28;20087;-71
2023/07/16 09:38:15;;;;;;;6.93;2.40;;;31.20;54.70;;;;;;5054563;28;20032;-71
2023/07/16 09:40:44;;;;;;;6.45;1.75;;;31.10;54.50;;;;;;5053323;28;20455;-70
2023/07/16 09:43:11;;;;;;;5.50;1.90;;;30.50;55.10;;;;;;5053256;28;20086;-70
2023/07/16 09:45:37;;;;;;;5.07;2.03;;;30.50;54.80;;;;;;5054396;28;20110;-69
2023/07/16 09:48:03;;;;;;;5.97;2.65;;;30.50;54.50;;;;;;5054273;28;20467;-69
2023/07/16 09:50:32;;;;;;;7.05;2.20;;;30.40;54.30;;;;;;5041758;28;20094;-72
2023/07/16 09:52:58;;;;;;;7.15;2.10;;;29.80;54.20;;;;;;5034623;28;20354;-70
2023/07/16 09:55:24;;;;;;;5.75;1.65;;;28.80;55.20;;;;;;5034182;28;20180;-70
2023/07/16 09:57:54;;;;;;;3.20;1.73;;;28.80;56.00;;;;;;5033326;28;20371;-69
2023/07/16 10:00:22;;;;;;;6.07;1.75;;;28.40;56.00;;;;;;5034043;28;20478;-70
2023/07/16 10:02:49;;;;;;;5.30;1.88;;;28.40;56.20;;;;;;5034025;28;20033;-70
2023/07/16 10:05:24;;;;;;;4.43;1.73;;;28.30;56.20;;;;;;5034421;28;20049;-69
2023/07/16 10:07:52;;;;;;;8.07;2.63;;;27.60;56.70;;;;;;5033833;28;20127;-72
2023/07/16 10:10:19;;;;;;;5.93;2.53;;;27.30;58.10;;;;;;5033898;28;20041;-70
2023/07/16 10:13:01;;;;;;;9.00;2.42;;;27.30;58.70;;;;;;5034072;28;20037;-71
2023/07/16 10:15:28;;;;;;;10.50;2.28;;;27.40;58.90;;;;;;5065771;28;20037;-70
2023/07/16 10:17:55;;;;;;;7.68;2.95;;;27.20;59.00;;;;;;5033723;28;20124;-70
2023/07/16 10:20:35;;;;;;;10.60;2.20;;;27.10;59.30;;;;;;5033085;28;20101;-69
2023/07/16 10:23:14;;;;;;;8.45;2.17;;;27.20;59.40;;;;;;5013582;28;20129;-72
2023/07/16 10:25:41;;;;;;;6.38;2.10;;;27.50;59.40;;;;;;5030997;28;20044;-71
2023/07/16 10:28:07;;;;;;;5.15;1.80;;;27.30;59.60;;;;;;5033939;28;20045;-69
2023/07/16 10:30:34;;;;;;;4.95;2.22;;;27.60;59.40;;;;;;5033529;28;20117;-69
2023/07/16 10:33:06;;;;;;;5.00;2.40;;;27.50;58.60;;;;;;5033346;28;20521;-69
2023/07/16 10:35:35;;;;;;;6.03;2.38;;;27.50;58.80;;;;;;5033444;28;20061;-69
2023/07/16 10:38:01;;;;;;;5.72;2.15;;;27.40;58.60;;;;;;5032147;28;20080;-70
2023/07/16 10:40:26;;;;;;;4.20;2.10;;;27.30;58.80;;;;;;5032954;28;20065;-70
2023/07/16 10:42:52;;;;;;;4.88;2.15;;;27.10;59.00;;;;;;5033289;28;20108;-69
2023/07/16 10:45:19;;;;;;;5.25;2.90;;;26.50;58.90;;;;;;5033396;28;20033;-70
2023/07/16 10:47:53;;;;;;;5.32;1.95;;;26.80;59.50;;;;;;5033073;28;20469;-70
2023/07/16 10:50:21;;;;;;;5.05;1.80;;;27.00;59.30;;;;;;5033509;28;20079;-70
2023/07/16 10:52:49;;;;;;;;;;;27.00;58.80;;;;;;5033684;28;20033;-69
2023/07/16 10:55:15;;;;;;;4.93;2.22;;;27.10;58.60;;;;;;5032939;28;20331;-69
2023/07/16 10:57:41;;;;;;;3.28;2.10;;;27.10;58.20;;;;;;5033013;28;20384;-70
2023/07/16 11:00:10;;;;;;;4.90;1.85;;;27.30;58.60;;;;;;5031821;28;20033;-70
2023/07/16 11:02:43;;;;;;;4.80;2.33;;;27.40;58.50;;;;;;5031610;28;20040;-69
2023/07/16 11:05:13;;;;;;;6.03;2.35;;;27.30;57.50;;;;;;5033601;28;20112;-69
2023/07/16 11:07:44;;;;;;;4.80;1.88;;;27.30;57.30;;;;;;5032603;28;20033;-70
2023/07/16 11:10:10;;;;;;;4.93;2.45;;;27.20;57.30;;;;;;5032907;28;20471;-69
2023/07/16 11:12:36;;;;;;;4.80;2.15;;;27.20;57.30;;;;;;5033136;28;20037;-70
2023/07/16 11:15:02;;;;;;;5.47;1.90;;;27.40;56.40;;;;;;5031450;28;20115;-70
2023/07/16 11:17:27;;;;;;;5.60;2.40;;;27.20;55.50;;;;;;5033109;28;20029;-69
2023/07/16 11:19:54;;;;;;;8.05;3.05;;;27.30;55.80;;;;;;5031621;28;20034;-70
2023/07/16 11:22:26;;;;;;;7.00;2.10;;;27.50;56.40;;;;;;5032424;28;20033;-69
2023/07/16 11:24:53;;;;;;;4.90;2.33;;;27.60;55.80;;;;;;5032440;28;20270;-69
2023/07/16 11:27:30;;;;;;;4.30;1.88;;;27.40;55.90;;;;;;5032575;28;20037;-70
2023/07/16 11:29:58;;;;;;;6.88;2.40;;;27.30;55.90;;;;;;5032750;28;20033;-71
2023/07/16 11:32:35;;;;;;;7.00;2.20;;;27.10;56.10;;;;;;5031926;28;20112;-70
2023/07/16 11:35:03;;;;;;;5.30;2.00;;;27.20;55.80;;;;;;5032015;28;20046;-70
2023/07/16 11:37:31;;;;;;;4.85;2.20;;;27.20;56.50;;;;;;5032377;28;20030;-70
2023/07/16 11:40:02;;;;;;;8.02;2.42;;;27.20;56.20;;;;;;5032179;28;20313;-70
2023/07/16 11:42:29;;;;;;;4.57;2.10;;;27.40;55.60;;;;;;5032130;28;20605;-68
2023/07/16 11:44:55;;;;;;;8.73;2.40;;;27.40;55.60;;;;;;5032206;28;20073;-69
2023/07/16 11:47:21;;;;;;;6.00;2.80;;;27.40;55.50;;;;;;5032608;28;20696;-72
2023/07/16 11:49:48;;;;;;;4.85;1.98;;;27.50;55.90;;;;;;5031755;28;20115;-69
2023/07/16 11:52:13;;;;;;;3.35;2.03;;;27.30;55.70;;;;;;5031527;28;20041;-70
2023/07/16 11:54:39;;;;;;;9.85;3.17;;;27.40;56.10;;;;;;5043881;28;20047;-70
2023/07/16 11:57:05;;;;;;;6.13;2.75;;;27.50;56.00;;;;;;5051607;28;20028;-70
2023/07/16 11:59:31;;;;;;;3.55;2.38;;;27.50;55.80;;;;;;5052147;28;20486;-71
2023/07/16 12:01:57;;;;;;;4.80;2.05;;;27.40;55.80;;;;;;5051329;28;20070;-69
2023/07/16 12:04:23;;;;;;;4.78;1.98;;;27.70;56.10;;;;;;5051579;28;20025;-69
2023/07/16 12:06:48;;;;;;;5.05;2.03;;;27.70;56.00;;;;;;5051255;28;20470;-70
2023/07/16 12:09:14;;;;;;;4.40;1.90;;;27.90;55.80;;;;;;5051445;28;20124;-70
2023/07/16 12:11:40;;;;;;;7.45;2.33;;;28.00;55.90;;;;;;5051537;28;20025;-72
2023/07/16 12:14:06;;;;;;;5.00;2.10;;;28.00;55.70;;;;;;5051745;28;20024;-71
2023/07/16 12:16:32;;;;;;;4.18;2.03;;;28.20;55.60;;;;;;5050361;28;20427;-71
2023/07/16 12:18:57;;;;;;;3.47;1.92;;;27.90;54.60;;;;;;5051404;28;20094;-70
2023/07/16 12:21:23;;;;;;;4.93;1.83;;;27.60;54.90;;;;;;5050343;28;20348;-73
2023/07/16 12:23:49;;;;;;;3.83;2.10;;;27.60;54.90;;;;;;5051674;28;20021;-71
2023/07/16 12:26:14;;;;;;;3.70;2.15;;;27.60;55.60;;;;;;5050607;28;20021;-71
2023/07/16 12:28:40;;;;;;;5.55;2.53;;;27.60;55.50;;;;;;5050174;28;20459;-71
2023/07/16 12:31:06;;;;;;;6.85;2.53;;;27.50;55.90;;;;;;5050273;28;20029;-70
2023/07/16 12:33:31;;;;;;;8.70;2.30;;;27.50;55.80;;;;;;5051263;28;20128;-71
2023/07/16 12:35:57;;;;;;;8.40;2.45;;;27.50;56.20;;;;;;5051035;28;20459;-70
2023/07/16 12:38:23;;;;;;;3.85;2.20;;;27.60;56.20;;;;;;5050358;28;20352;-70
2023/07/16 12:40:48;;;;;;;8.40;2.47;;;27.70;56.60;;;;;;5050978;28;20158;-71
2023/07/16 12:43:14;;;;;;;7.82;2.25;;;27.60;56.20;;;;;;5050894;28;20025;-70
2023/07/16 12:45:40;;;;;;;5.97;2.40;;;27.50;55.70;;;;;;5049512;28;20450;-71